sensor_id;sensor_type;location;lat;lon;timestamp;temperature;humidity
6672;DHT22;3372;48.690;12.362;2023-04-15T00:01:58;8.80;60.20
6672;DHT22;3372;48.690;12.362;2023-04-15T00:04:25;8.80;60.10
6672;DHT22;3372;48.690;12.362;2023-04-15T00:06:51;8.90;60.20
6672;DHT22;3372;48.690;12.362;2023-04-15T00:09:20;8.80;60.10
6672;DHT22;3372;48.690;12.362;2023-04-15T00:11:45;8.70;59.90
6672;DHT22;3372;48.690;12.362;2023-04-15T00:14:12;8.70;60.00
6672;DHT22;3372;48.690;12.362;2023-04-15T00:16:38;8.70;60.00
6672;DHT22;3372;48.690;12.362;2023-04-15T00:19:03;8.70;60.10
6672;DHT22;3372;48.690;12.362;2023-04-15T00:21:29;8.70;60.00
6672;DHT22;3372;48.690;12.362;2023-04-15T00:23:55;8.70;60.00
6672;DHT22;3372;48.690;12.362;2023-04-15T00:26:21;8.80;59.70
6672;DHT22;3372;48.690;12.362;2023-04-15T00:28:46;8.80;59.60
6672;DHT22;3372;48.690;12.362;2023-04-15T00:31:12;8.80;59.40
6672;DHT22;3372;48.690;12.362;2023-04-15T00:33:37;8.80;59.50
6672;DHT22;3372;48.690;12.362;2023-04-15T00:36:05;8.80;58.90
6672;DHT22;3372;48.690;12.362;2023-04-15T00:38:30;8.80;59.00
6672;DHT22;3372;48.690;12.362;2023-04-15T00:40:56;8.90;59.20
6672;DHT22;3372;48.690;12.362;2023-04-15T00:43:21;8.80;59.40
6672;DHT22;3372;48.690;12.362;2023-04-15T00:45:47;8.80;59.00
6672;DHT22;3372;48.690;12.362;2023-04-15T00:48:13;8.80;59.30
6672;DHT22;3372;48.690;12.362;2023-04-15T00:50:39;8.80;59.30
6672;DHT22;3372;48.690;12.362;2023-04-15T00:53:05;8.80;59.50
6672;DHT22;3372;48.690;12.362;2023-04-15T00:55:31;8.80;59.00
6672;DHT22;3372;48.690;12.362;2023-04-15T00:57:56;8.70;58.90
6672;DHT22;3372;48.690;12.362;2023-04-15T01:00:22;8.70;58.90
6672;DHT22;3372;48.690;12.362;2023-04-15T01:02:48;8.70;59.10
6672;DHT22;3372;48.690;12.362;2023-04-15T01:05:14;8.70;59.50
6672;DHT22;3372;48.690;12.362;2023-04-15T01:07:42;8.70;59.90
6672;DHT22;3372;48.690;12.362;2023-04-15T01:10:08;8.70;58.80
6672;DHT22;3372;48.690;12.362;2023-04-15T01:12:34;8.80;58.60
6672;DHT22;3372;48.690;12.362;2023-04-15T01:15:01;8.70;58.60
6672;DHT22;3372;48.690;12.362;2023-04-15T01:17:27;8.70;58.90
6672;DHT22;3372;48.690;12.362;2023-04-15T01:19:55;8.70;58.70
6672;DHT22;3372;48.690;12.362;2023-04-15T01:22:22;8.70;58.70
6672;DHT22;3372;48.690;12.362;2023-04-15T01:25:09;8.70;58.80
6672;DHT22;3372;48.690;12.362;2023-04-15T01:27:38;8.70;59.60
6672;DHT22;3372;48.690;12.362;2023-04-15T01:30:06;8.70;58.90
6672;DHT22;3372;48.690;12.362;2023-04-15T01:32:32;8.70;58.70
6672;DHT22;3372;48.690;12.362;2023-04-15T01:34:57;8.70;58.70
6672;DHT22;3372;48.690;12.362;2023-04-15T01:37:23;8.70;58.70
6672;DHT22;3372;48.690;12.362;2023-04-15T01:39:49;8.70;58.60
6672;DHT22;3372;48.690;12.362;2023-04-15T01:42:14;8.70;58.50
6672;DHT22;3372;48.690;12.362;2023-04-15T01:44:40;8.70;58.70
6672;DHT22;3372;48.690;12.362;2023-04-15T01:47:05;8.60;58.20
6672;DHT22;3372;48.690;12.362;2023-04-15T01:49:31;8.70;59.10
6672;DHT22;3372;48.690;12.362;2023-04-15T01:51:57;8.70;58.40
6672;DHT22;3372;48.690;12.362;2023-04-15T01:54:22;8.60;58.60
6672;DHT22;3372;48.690;12.362;2023-04-15T01:56:48;8.70;58.30
6672;DHT22;3372;48.690;12.362;2023-04-15T01:59:13;8.70;58.60
6672;DHT22;3372;48.690;12.362;2023-04-15T02:01:39;8.80;58.50
6672;DHT22;3372;48.690;12.362;2023-04-15T02:04:05;8.80;58.80
6672;DHT22;3372;48.690;12.362;2023-04-15T02:06:31;8.80;58.80
6672;DHT22;3372;48.690;12.362;2023-04-15T02:08:57;8.80;58.70
6672;DHT22;3372;48.690;12.362;2023-04-15T02:11:23;8.80;58.90
6672;DHT22;3372;48.690;12.362;2023-04-15T02:13:49;8.80;58.70
6672;DHT22;3372;48.690;12.362;2023-04-15T02:16:16;8.80;59.00
6672;DHT22;3372;48.690;12.362;2023-04-15T02:18:43;8.70;58.70
6672;DHT22;3372;48.690;12.362;2023-04-15T02:21:09;8.80;59.10
6672;DHT22;3372;48.690;12.362;2023-04-15T02:23:35;8.80;59.20
6672;DHT22;3372;48.690;12.362;2023-04-15T02:26:00;8.80;59.00
6672;DHT22;3372;48.690;12.362;2023-04-15T02:28:26;8.70;59.30
6672;DHT22;3372;48.690;12.362;2023-04-15T02:30:52;8.80;58.80
6672;DHT22;3372;48.690;12.362;2023-04-15T02:33:19;8.80;59.10
6672;DHT22;3372;48.690;12.362;2023-04-15T02:35:45;8.80;59.20
6672;DHT22;3372;48.690;12.362;2023-04-15T02:38:11;8.80;59.90
6672;DHT22;3372;48.690;12.362;2023-04-15T02:40:38;8.80;59.40
6672;DHT22;3372;48.690;12.362;2023-04-15T02:43:04;8.80;59.50
6672;DHT22;3372;48.690;12.362;2023-04-15T02:45:31;8.70;59.90
6672;DHT22;3372;48.690;12.362;2023-04-15T02:47:57;8.70;60.00
6672;DHT22;3372;48.690;12.362;2023-04-15T02:50:23;8.70;60.00
6672;DHT22;3372;48.690;12.362;2023-04-15T02:52:49;8.70;60.00
6672;DHT22;3372;48.690;12.362;2023-04-15T02:55:16;8.70;59.80
6672;DHT22;3372;48.690;12.362;2023-04-15T02:57:42;8.70;60.00
6672;DHT22;3372;48.690;12.362;2023-04-15T03:00:09;8.70;60.00
6672;DHT22;3372;48.690;12.362;2023-04-15T03:02:37;8.70;60.70
6672;DHT22;3372;48.690;12.362;2023-04-15T03:05:03;8.60;60.60
6672;DHT22;3372;48.690;12.362;2023-04-15T03:07:30;8.60;60.70
6672;DHT22;3372;48.690;12.362;2023-04-15T03:09:56;8.60;61.10
6672;DHT22;3372;48.690;12.362;2023-04-15T03:12:22;8.60;61.30
6672;DHT22;3372;48.690;12.362;2023-04-15T03:14:47;8.60;60.80
6672;DHT22;3372;48.690;12.362;2023-04-15T03:17:13;8.50;61.20
6672;DHT22;3372;48.690;12.362;2023-04-15T03:19:38;8.50;61.90
6672;DHT22;3372;48.690;12.362;2023-04-15T03:22:04;8.50;62.00
6672;DHT22;3372;48.690;12.362;2023-04-15T03:24:30;8.50;62.30
6672;DHT22;3372;48.690;12.362;2023-04-15T03:26:56;8.60;62.30
6672;DHT22;3372;48.690;12.362;2023-04-15T03:29:22;8.50;63.30
6672;DHT22;3372;48.690;12.362;2023-04-15T03:31:48;8.50;62.90
6672;DHT22;3372;48.690;12.362;2023-04-15T03:34:13;8.50;63.10
6672;DHT22;3372;48.690;12.362;2023-04-15T03:36:39;8.40;63.20
6672;DHT22;3372;48.690;12.362;2023-04-15T03:39:05;8.40;63.50
6672;DHT22;3372;48.690;12.362;2023-04-15T03:41:30;8.50;63.50
6672;DHT22;3372;48.690;12.362;2023-04-15T03:43:57;8.50;63.30
6672;DHT22;3372;48.690;12.362;2023-04-15T03:46:22;8.40;64.20
6672;DHT22;3372;48.690;12.362;2023-04-15T03:48:48;8.40;62.90
6672;DHT22;3372;48.690;12.362;2023-04-15T03:51:14;8.40;63.40
6672;DHT22;3372;48.690;12.362;2023-04-15T03:53:39;8.40;64.00
6672;DHT22;3372;48.690;12.362;2023-04-15T03:56:05;8.40;63.90
6672;DHT22;3372;48.690;12.362;2023-04-15T03:58:31;8.40;64.30
6672;DHT22;3372;48.690;12.362;2023-04-15T04:00:56;8.40;64.70
6672;DHT22;3372;48.690;12.362;2023-04-15T04:03:22;8.40;65.10
6672;DHT22;3372;48.690;12.362;2023-04-15T04:05:48;8.40;65.00
6672;DHT22;3372;48.690;12.362;2023-04-15T04:08:13;8.40;65.10
6672;DHT22;3372;48.690;12.362;2023-04-15T04:10:40;8.40;65.20
6672;DHT22;3372;48.690;12.362;2023-04-15T04:13:06;8.40;65.40
6672;DHT22;3372;48.690;12.362;2023-04-15T04:15:32;8.40;65.60
6672;DHT22;3372;48.690;12.362;2023-04-15T04:17:57;8.30;66.30
6672;DHT22;3372;48.690;12.362;2023-04-15T04:20:23;8.40;66.60
6672;DHT22;3372;48.690;12.362;2023-04-15T04:22:49;8.50;66.50
6672;DHT22;3372;48.690;12.362;2023-04-15T04:25:14;8.50;65.90
6672;DHT22;3372;48.690;12.362;2023-04-15T04:27:40;8.40;66.40
6672;DHT22;3372;48.690;12.362;2023-04-15T04:30:07;8.50;65.90
6672;DHT22;3372;48.690;12.362;2023-04-15T04:32:32;8.40;66.20
6672;DHT22;3372;48.690;12.362;2023-04-15T04:34:58;8.50;66.90
6672;DHT22;3372;48.690;12.362;2023-04-15T04:37:23;8.50;67.40
6672;DHT22;3372;48.690;12.362;2023-04-15T04:39:49;8.50;67.40
6672;DHT22;3372;48.690;12.362;2023-04-15T04:42:15;8.50;66.90
6672;DHT22;3372;48.690;12.362;2023-04-15T04:44:41;8.50;67.00
6672;DHT22;3372;48.690;12.362;2023-04-15T04:47:06;8.40;68.00
6672;DHT22;3372;48.690;12.362;2023-04-15T04:49:32;8.40;68.40
6672;DHT22;3372;48.690;12.362;2023-04-15T04:51:58;8.40;68.40
6672;DHT22;3372;48.690;12.362;2023-04-15T04:54:24;8.40;68.80
6672;DHT22;3372;48.690;12.362;2023-04-15T04:56:50;8.30;67.90
6672;DHT22;3372;48.690;12.362;2023-04-15T04:59:16;8.30;68.60
6672;DHT22;3372;48.690;12.362;2023-04-15T05:01:41;8.40;68.80
6672;DHT22;3372;48.690;12.362;2023-04-15T05:04:07;8.30;69.00
6672;DHT22;3372;48.690;12.362;2023-04-15T05:06:33;8.20;68.50
6672;DHT22;3372;48.690;12.362;2023-04-15T05:09:00;8.20;69.30
6672;DHT22;3372;48.690;12.362;2023-04-15T05:11:26;8.30;70.40
6672;DHT22;3372;48.690;12.362;2023-04-15T05:13:52;8.20;69.40
6672;DHT22;3372;48.690;12.362;2023-04-15T05:16:18;8.00;68.60
6672;DHT22;3372;48.690;12.362;2023-04-15T05:18:44;8.00;69.80
6672;DHT22;3372;48.690;12.362;2023-04-15T05:21:09;8.00;70.00
6672;DHT22;3372;48.690;12.362;2023-04-15T05:23:35;8.00;69.80
6672;DHT22;3372;48.690;12.362;2023-04-15T05:26:02;8.00;68.80
6672;DHT22;3372;48.690;12.362;2023-04-15T05:28:27;7.90;68.10
6672;DHT22;3372;48.690;12.362;2023-04-15T05:30:53;7.90;69.10
6672;DHT22;3372;48.690;12.362;2023-04-15T05:33:19;7.90;70.00
6672;DHT22;3372;48.690;12.362;2023-04-15T05:35:44;7.90;69.10
6672;DHT22;3372;48.690;12.362;2023-04-15T05:38:10;7.90;70.00
6672;DHT22;3372;48.690;12.362;2023-04-15T05:40:36;7.80;70.10
6672;DHT22;3372;48.690;12.362;2023-04-15T05:43:01;7.80;71.00
6672;DHT22;3372;48.690;12.362;2023-04-15T05:45:27;7.80;71.10
6672;DHT22;3372;48.690;12.362;2023-04-15T05:47:53;7.70;70.30
6672;DHT22;3372;48.690;12.362;2023-04-15T05:50:19;7.70;70.10
6672;DHT22;3372;48.690;12.362;2023-04-15T05:52:45;7.60;69.70
6672;DHT22;3372;48.690;12.362;2023-04-15T05:55:11;7.60;71.10
6672;DHT22;3372;48.690;12.362;2023-04-15T05:57:37;7.70;72.40
6672;DHT22;3372;48.690;12.362;2023-04-15T06:00:04;7.70;72.30
6672;DHT22;3372;48.690;12.362;2023-04-15T06:02:29;7.70;73.70
6672;DHT22;3372;48.690;12.362;2023-04-15T06:04:56;7.70;74.10
6672;DHT22;3372;48.690;12.362;2023-04-15T06:07:22;7.80;74.20
6672;DHT22;3372;48.690;12.362;2023-04-15T06:09:48;7.80;73.60
6672;DHT22;3372;48.690;12.362;2023-04-15T06:12:14;7.80;73.60
6672;DHT22;3372;48.690;12.362;2023-04-15T06:14:40;7.80;72.80
6672;DHT22;3372;48.690;12.362;2023-04-15T06:17:05;7.90;73.80
6672;DHT22;3372;48.690;12.362;2023-04-15T06:19:31;7.90;73.80
6672;DHT22;3372;48.690;12.362;2023-04-15T06:21:57;7.90;74.10
6672;DHT22;3372;48.690;12.362;2023-04-15T06:24:23;7.90;74.10
6672;DHT22;3372;48.690;12.362;2023-04-15T06:26:48;7.90;73.70
6672;DHT22;3372;48.690;12.362;2023-04-15T06:29:14;7.90;73.80
6672;DHT22;3372;48.690;12.362;2023-04-15T06:31:40;7.90;73.30
6672;DHT22;3372;48.690;12.362;2023-04-15T06:34:06;7.90;72.60
6672;DHT22;3372;48.690;12.362;2023-04-15T06:36:32;7.90;73.20
6672;DHT22;3372;48.690;12.362;2023-04-15T06:38:57;7.90;74.30
6672;DHT22;3372;48.690;12.362;2023-04-15T06:41:23;7.90;74.00
6672;DHT22;3372;48.690;12.362;2023-04-15T06:43:49;7.80;73.90
6672;DHT22;3372;48.690;12.362;2023-04-15T06:46:15;7.80;73.90
6672;DHT22;3372;48.690;12.362;2023-04-15T06:48:40;7.80;74.00
6672;DHT22;3372;48.690;12.362;2023-04-15T06:51:06;7.80;73.70
6672;DHT22;3372;48.690;12.362;2023-04-15T06:53:32;7.80;74.80
6672;DHT22;3372;48.690;12.362;2023-04-15T06:55:58;7.90;76.70
6672;DHT22;3372;48.690;12.362;2023-04-15T06:58:23;7.90;75.40
6672;DHT22;3372;48.690;12.362;2023-04-15T07:00:49;7.90;75.60
6672;DHT22;3372;48.690;12.362;2023-04-15T07:03:15;7.90;76.20
6672;DHT22;3372;48.690;12.362;2023-04-15T07:05:41;8.00;75.70
6672;DHT22;3372;48.690;12.362;2023-04-15T07:08:06;8.00;75.90
6672;DHT22;3372;48.690;12.362;2023-04-15T07:10:33;7.90;76.30
6672;DHT22;3372;48.690;12.362;2023-04-15T07:12:58;8.00;76.40
6672;DHT22;3372;48.690;12.362;2023-04-15T07:15:24;7.80;78.70
6672;DHT22;3372;48.690;12.362;2023-04-15T07:17:49;7.90;80.20
6672;DHT22;3372;48.690;12.362;2023-04-15T07:20:15;8.00;79.70
6672;DHT22;3372;48.690;12.362;2023-04-15T07:22:41;8.00;80.20
6672;DHT22;3372;48.690;12.362;2023-04-15T07:25:07;8.00;81.20
6672;DHT22;3372;48.690;12.362;2023-04-15T07:27:33;8.10;81.20
6672;DHT22;3372;48.690;12.362;2023-04-15T07:29:58;8.10;81.60
6672;DHT22;3372;48.690;12.362;2023-04-15T07:32:24;8.20;84.40
6672;DHT22;3372;48.690;12.362;2023-04-15T07:34:50;8.30;86.00
6672;DHT22;3372;48.690;12.362;2023-04-15T07:37:16;8.30;84.70
6672;DHT22;3372;48.690;12.362;2023-04-15T07:39:42;8.40;83.80
6672;DHT22;3372;48.690;12.362;2023-04-15T07:42:08;8.40;84.10
6672;DHT22;3372;48.690;12.362;2023-04-15T07:44:33;8.30;83.40
6672;DHT22;3372;48.690;12.362;2023-04-15T07:47:00;8.30;82.90
6672;DHT22;3372;48.690;12.362;2023-04-15T07:49:26;8.30;83.60
6672;DHT22;3372;48.690;12.362;2023-04-15T07:51:52;8.30;84.00
6672;DHT22;3372;48.690;12.362;2023-04-15T07:54:17;8.30;84.90
6672;DHT22;3372;48.690;12.362;2023-04-15T07:56:43;8.30;84.00
6672;DHT22;3372;48.690;12.362;2023-04-15T07:59:08;8.30;84.50
6672;DHT22;3372;48.690;12.362;2023-04-15T08:01:35;8.30;84.50
6672;DHT22;3372;48.690;12.362;2023-04-15T08:04:01;8.30;83.80
6672;DHT22;3372;48.690;12.362;2023-04-15T08:06:27;8.40;84.30
6672;DHT22;3372;48.690;12.362;2023-04-15T08:08:53;8.40;84.90
6672;DHT22;3372;48.690;12.362;2023-04-15T08:11:20;8.40;84.40
6672;DHT22;3372;48.690;12.362;2023-04-15T08:13:45;8.40;84.10
6672;DHT22;3372;48.690;12.362;2023-04-15T08:16:19;8.30;86.70
6672;DHT22;3372;48.690;12.362;2023-04-15T08:18:46;8.40;86.00
6672;DHT22;3372;48.690;12.362;2023-04-15T08:21:12;8.40;85.80
6672;DHT22;3372;48.690;12.362;2023-04-15T08:23:38;8.40;84.40
6672;DHT22;3372;48.690;12.362;2023-04-15T08:26:04;8.40;85.30
6672;DHT22;3372;48.690;12.362;2023-04-15T08:28:30;8.40;84.20
6672;DHT22;3372;48.690;12.362;2023-04-15T08:30:56;8.40;85.00
6672;DHT22;3372;48.690;12.362;2023-04-15T08:33:21;8.50;84.30
6672;DHT22;3372;48.690;12.362;2023-04-15T08:35:48;8.40;84.40
6672;DHT22;3372;48.690;12.362;2023-04-15T08:38:13;8.50;85.90
6672;DHT22;3372;48.690;12.362;2023-04-15T08:40:41;8.50;84.70
6672;DHT22;3372;48.690;12.362;2023-04-15T08:43:12;8.50;84.50
6672;DHT22;3372;48.690;12.362;2023-04-15T08:45:40;8.50;83.80
6672;DHT22;3372;48.690;12.362;2023-04-15T08:48:07;8.60;84.10
6672;DHT22;3372;48.690;12.362;2023-04-15T08:50:34;8.60;83.90
6672;DHT22;3372;48.690;12.362;2023-04-15T08:53:00;8.60;85.40
6672;DHT22;3372;48.690;12.362;2023-04-15T08:55:29;8.60;85.30
6672;DHT22;3372;48.690;12.362;2023-04-15T08:57:58;8.60;85.80
6672;DHT22;3372;48.690;12.362;2023-04-15T09:00:24;8.60;85.20
6672;DHT22;3372;48.690;12.362;2023-04-15T09:02:51;8.60;84.10
6672;DHT22;3372;48.690;12.362;2023-04-15T09:05:17;8.60;84.00
6672;DHT22;3372;48.690;12.362;2023-04-15T09:07:42;8.70;85.20
6672;DHT22;3372;48.690;12.362;2023-04-15T09:10:09;8.70;84.10
6672;DHT22;3372;48.690;12.362;2023-04-15T09:12:36;8.60;83.90
6672;DHT22;3372;48.690;12.362;2023-04-15T09:15:03;8.60;83.80
6672;DHT22;3372;48.690;12.362;2023-04-15T09:17:32;8.60;85.30
6672;DHT22;3372;48.690;12.362;2023-04-15T09:20:12;8.60;85.50
6672;DHT22;3372;48.690;12.362;2023-04-15T09:22:39;8.50;85.40
6672;DHT22;3372;48.690;12.362;2023-04-15T09:25:25;8.60;84.40
6672;DHT22;3372;48.690;12.362;2023-04-15T09:27:58;8.60;84.00
6672;DHT22;3372;48.690;12.362;2023-04-15T09:30:24;8.60;84.60
6672;DHT22;3372;48.690;12.362;2023-04-15T09:32:58;8.60;84.10
6672;DHT22;3372;48.690;12.362;2023-04-15T09:35:25;8.60;85.10
6672;DHT22;3372;48.690;12.362;2023-04-15T09:38:00;8.70;84.40
6672;DHT22;3372;48.690;12.362;2023-04-15T09:40:31;8.70;85.20
6672;DHT22;3372;48.690;12.362;2023-04-15T09:43:00;8.60;82.50
6672;DHT22;3372;48.690;12.362;2023-04-15T09:45:27;8.70;84.00
6672;DHT22;3372;48.690;12.362;2023-04-15T09:47:53;8.70;84.60
6672;DHT22;3372;48.690;12.362;2023-04-15T09:50:19;8.70;83.60
6672;DHT22;3372;48.690;12.362;2023-04-15T09:52:45;8.70;82.60
6672;DHT22;3372;48.690;12.362;2023-04-15T09:55:12;8.70;84.70
6672;DHT22;3372;48.690;12.362;2023-04-15T09:57:39;8.70;83.70
6672;DHT22;3372;48.690;12.362;2023-04-15T10:00:09;8.80;84.10
6672;DHT22;3372;48.690;12.362;2023-04-15T10:02:36;8.80;83.10
6672;DHT22;3372;48.690;12.362;2023-04-15T10:05:03;8.80;84.70
6672;DHT22;3372;48.690;12.362;2023-04-15T10:07:28;8.70;82.00
6672;DHT22;3372;48.690;12.362;2023-04-15T10:09:55;8.50;83.60
6672;DHT22;3372;48.690;12.362;2023-04-15T10:12:21;8.60;84.20
6672;DHT22;3372;48.690;12.362;2023-04-15T10:14:58;8.70;83.60
6672;DHT22;3372;48.690;12.362;2023-04-15T10:17:27;8.80;85.10
6672;DHT22;3372;48.690;12.362;2023-04-15T10:20:00;9.00;84.60
6672;DHT22;3372;48.690;12.362;2023-04-15T10:22:27;9.10;82.70
6672;DHT22;3372;48.690;12.362;2023-04-15T10:24:55;9.20;84.30
6672;DHT22;3372;48.690;12.362;2023-04-15T10:27:21;9.40;83.70
6672;DHT22;3372;48.690;12.362;2023-04-15T10:29:49;9.20;80.10
6672;DHT22;3372;48.690;12.362;2023-04-15T10:32:16;9.20;81.20
6672;DHT22;3372;48.690;12.362;2023-04-15T10:34:42;9.30;81.80
6672;DHT22;3372;48.690;12.362;2023-04-15T10:37:09;9.20;80.30
6672;DHT22;3372;48.690;12.362;2023-04-15T10:42:15;9.20;78.20
6672;DHT22;3372;48.690;12.362;2023-04-15T10:44:49;9.20;78.10
6672;DHT22;3372;48.690;12.362;2023-04-15T10:47:19;9.10;77.30
6672;DHT22;3372;48.690;12.362;2023-04-15T10:49:50;9.20;79.20
6672;DHT22;3372;48.690;12.362;2023-04-15T10:52:21;9.20;80.80
6672;DHT22;3372;48.690;12.362;2023-04-15T10:54:47;9.20;80.00
6672;DHT22;3372;48.690;12.362;2023-04-15T10:57:15;9.20;79.60
6672;DHT22;3372;48.690;12.362;2023-04-15T11:02:39;9.00;80.10
6672;DHT22;3372;48.690;12.362;2023-04-15T11:05:06;8.80;81.00
6672;DHT22;3372;48.690;12.362;2023-04-15T11:12:58;9.00;82.00
6672;DHT22;3372;48.690;12.362;2023-04-15T11:15:38;9.00;81.20
6672;DHT22;3372;48.690;12.362;2023-04-15T11:18:14;9.00;82.50
6672;DHT22;3372;48.690;12.362;2023-04-15T11:20:50;9.10;81.30
6672;DHT22;3372;48.690;12.362;2023-04-15T11:23:31;9.10;81.60
6672;DHT22;3372;48.690;12.362;2023-04-15T11:25:58;9.00;82.60
6672;DHT22;3372;48.690;12.362;2023-04-15T11:28:28;9.10;80.50
6672;DHT22;3372;48.690;12.362;2023-04-15T11:30:54;9.10;79.50
6672;DHT22;3372;48.690;12.362;2023-04-15T11:33:21;9.20;79.10
6672;DHT22;3372;48.690;12.362;2023-04-15T11:35:48;9.20;78.70
6672;DHT22;3372;48.690;12.362;2023-04-15T11:38:15;9.20;76.50
6672;DHT22;3372;48.690;12.362;2023-04-15T11:40:42;9.10;77.60
6672;DHT22;3372;48.690;12.362;2023-04-15T11:46:00;9.20;78.70
6672;DHT22;3372;48.690;12.362;2023-04-15T11:48:28;9.10;77.80
6672;DHT22;3372;48.690;12.362;2023-04-15T11:50:58;9.20;78.00
6672;DHT22;3372;48.690;12.362;2023-04-15T11:53:41;9.20;75.80
6672;DHT22;3372;48.690;12.362;2023-04-15T11:56:26;9.30;75.80
6672;DHT22;3372;48.690;12.362;2023-04-15T11:58:56;9.10;72.50
6672;DHT22;3372;48.690;12.362;2023-04-15T12:01:34;9.10;75.70
6672;DHT22;3372;48.690;12.362;2023-04-15T12:04:00;9.20;75.90
6672;DHT22;3372;48.690;12.362;2023-04-15T12:06:32;9.30;75.10
6672;DHT22;3372;48.690;12.362;2023-04-15T12:09:07;9.30;72.90
6672;DHT22;3372;48.690;12.362;2023-04-15T12:11:36;9.30;72.40
6672;DHT22;3372;48.690;12.362;2023-04-15T12:14:05;9.40;74.00
6672;DHT22;3372;48.690;12.362;2023-04-15T12:16:36;9.40;72.60
6672;DHT22;3372;48.690;12.362;2023-04-15T12:19:05;9.40;71.30
6672;DHT22;3372;48.690;12.362;2023-04-15T12:21:36;9.40;70.70
6672;DHT22;3372;48.690;12.362;2023-04-15T12:24:04;9.50;72.10
6672;DHT22;3372;48.690;12.362;2023-04-15T12:29:08;9.60;69.40
6672;DHT22;3372;48.690;12.362;2023-04-15T12:31:34;9.70;70.10
6672;DHT22;3372;48.690;12.362;2023-04-15T12:34:01;9.80;70.20
6672;DHT22;3372;48.690;12.362;2023-04-15T12:36:28;9.90;69.10
6672;DHT22;3372;48.690;12.362;2023-04-15T12:38:56;10.00;67.90
6672;DHT22;3372;48.690;12.362;2023-04-15T12:41:21;10.20;69.10
6672;DHT22;3372;48.690;12.362;2023-04-15T12:43:49;10.30;68.70
6672;DHT22;3372;48.690;12.362;2023-04-15T12:46:15;10.40;66.80
6672;DHT22;3372;48.690;12.362;2023-04-15T12:48:42;10.40;65.20
6672;DHT22;3372;48.690;12.362;2023-04-15T12:51:08;10.30;65.20
6672;DHT22;3372;48.690;12.362;2023-04-15T12:53:33;10.30;63.80
6672;DHT22;3372;48.690;12.362;2023-04-15T12:55:59;10.30;60.90
6672;DHT22;3372;48.690;12.362;2023-04-15T12:58:24;10.30;61.90
6672;DHT22;3372;48.690;12.362;2023-04-15T13:00:50;10.20;63.00
6672;DHT22;3372;48.690;12.362;2023-04-15T13:03:16;10.30;62.20
6672;DHT22;3372;48.690;12.362;2023-04-15T13:05:42;10.10;62.00
6672;DHT22;3372;48.690;12.362;2023-04-15T13:08:07;10.20;62.40
6672;DHT22;3372;48.690;12.362;2023-04-15T13:10:35;10.20;62.40
6672;DHT22;3372;48.690;12.362;2023-04-15T13:13:01;10.20;62.90
6672;DHT22;3372;48.690;12.362;2023-04-15T13:15:28;10.20;64.30
6672;DHT22;3372;48.690;12.362;2023-04-15T13:17:55;10.20;61.80
6672;DHT22;3372;48.690;12.362;2023-04-15T13:20:21;10.20;61.80
6672;DHT22;3372;48.690;12.362;2023-04-15T13:22:47;10.20;63.00
6672;DHT22;3372;48.690;12.362;2023-04-15T13:25:12;10.20;62.40
6672;DHT22;3372;48.690;12.362;2023-04-15T13:27:39;10.10;63.50
6672;DHT22;3372;48.690;12.362;2023-04-15T13:30:05;10.10;64.00
6672;DHT22;3372;48.690;12.362;2023-04-15T13:32:30;10.20;63.20
6672;DHT22;3372;48.690;12.362;2023-04-15T13:34:57;10.10;63.00
6672;DHT22;3372;48.690;12.362;2023-04-15T13:37:27;9.90;62.10
6672;DHT22;3372;48.690;12.362;2023-04-15T13:39:54;9.80;64.60
6672;DHT22;3372;48.690;12.362;2023-04-15T13:42:22;9.90;64.70
6672;DHT22;3372;48.690;12.362;2023-04-15T13:44:49;9.90;65.00
6672;DHT22;3372;48.690;12.362;2023-04-15T13:47:18;10.00;63.40
6672;DHT22;3372;48.690;12.362;2023-04-15T13:49:45;10.00;63.70
6672;DHT22;3372;48.690;12.362;2023-04-15T13:52:11;9.90;65.00
6672;DHT22;3372;48.690;12.362;2023-04-15T13:54:37;9.60;65.30
6672;DHT22;3372;48.690;12.362;2023-04-15T13:57:02;9.70;67.10
6672;DHT22;3372;48.690;12.362;2023-04-15T13:59:34;9.60;67.00
6672;DHT22;3372;48.690;12.362;2023-04-15T14:02:00;9.50;67.50
6672;DHT22;3372;48.690;12.362;2023-04-15T14:04:25;9.50;69.50
6672;DHT22;3372;48.690;12.362;2023-04-15T14:06:51;9.50;71.50
6672;DHT22;3372;48.690;12.362;2023-04-15T14:09:17;9.50;72.10
6672;DHT22;3372;48.690;12.362;2023-04-15T14:11:42;9.40;72.20
6672;DHT22;3372;48.690;12.362;2023-04-15T14:14:08;9.50;71.30
6672;DHT22;3372;48.690;12.362;2023-04-15T14:16:34;9.30;71.20
6672;DHT22;3372;48.690;12.362;2023-04-15T14:19:01;9.40;71.30
6672;DHT22;3372;48.690;12.362;2023-04-15T14:21:27;9.40;72.60
6672;DHT22;3372;48.690;12.362;2023-04-15T14:23:54;9.50;72.70
6672;DHT22;3372;48.690;12.362;2023-04-15T14:26:20;9.60;71.90
6672;DHT22;3372;48.690;12.362;2023-04-15T14:28:45;9.70;71.50
6672;DHT22;3372;48.690;12.362;2023-04-15T14:31:12;9.50;71.30
6672;DHT22;3372;48.690;12.362;2023-04-15T14:33:38;9.50;73.30
6672;DHT22;3372;48.690;12.362;2023-04-15T14:36:04;9.50;73.80
6672;DHT22;3372;48.690;12.362;2023-04-15T14:38:30;9.50;74.10
6672;DHT22;3372;48.690;12.362;2023-04-15T14:40:55;9.50;73.90
6672;DHT22;3372;48.690;12.362;2023-04-15T14:43:21;9.70;73.50
6672;DHT22;3372;48.690;12.362;2023-04-15T14:45:47;9.70;72.60
6672;DHT22;3372;48.690;12.362;2023-04-15T14:48:12;9.80;72.10
6672;DHT22;3372;48.690;12.362;2023-04-15T14:50:38;9.80;72.00
6672;DHT22;3372;48.690;12.362;2023-04-15T14:53:04;9.80;72.10
6672;DHT22;3372;48.690;12.362;2023-04-15T14:55:30;9.90;71.70
6672;DHT22;3372;48.690;12.362;2023-04-15T14:57:55;9.80;70.50
6672;DHT22;3372;48.690;12.362;2023-04-15T15:00:21;9.80;71.40
6672;DHT22;3372;48.690;12.362;2023-04-15T15:02:47;9.80;69.70
6672;DHT22;3372;48.690;12.362;2023-04-15T15:05:12;9.90;70.50
6672;DHT22;3372;48.690;12.362;2023-04-15T15:07:38;9.90;69.80
6672;DHT22;3372;48.690;12.362;2023-04-15T15:10:05;9.90;68.60
6672;DHT22;3372;48.690;12.362;2023-04-15T15:12:31;9.90;68.90
6672;DHT22;3372;48.690;12.362;2023-04-15T15:14:57;9.90;69.50
6672;DHT22;3372;48.690;12.362;2023-04-15T15:17:23;9.90;69.80
6672;DHT22;3372;48.690;12.362;2023-04-15T15:19:48;9.90;70.70
6672;DHT22;3372;48.690;12.362;2023-04-15T15:22:14;9.90;69.40
6672;DHT22;3372;48.690;12.362;2023-04-15T15:24:39;9.90;69.40
6672;DHT22;3372;48.690;12.362;2023-04-15T15:27:05;9.90;69.30
6672;DHT22;3372;48.690;12.362;2023-04-15T15:29:30;9.90;70.00
6672;DHT22;3372;48.690;12.362;2023-04-15T15:31:56;9.90;69.50
6672;DHT22;3372;48.690;12.362;2023-04-15T15:34:22;9.90;69.50
6672;DHT22;3372;48.690;12.362;2023-04-15T15:36:47;10.00;69.00
6672;DHT22;3372;48.690;12.362;2023-04-15T15:39:13;10.00;69.00
6672;DHT22;3372;48.690;12.362;2023-04-15T15:41:38;10.10;69.50
6672;DHT22;3372;48.690;12.362;2023-04-15T15:44:04;10.20;68.60
6672;DHT22;3372;48.690;12.362;2023-04-15T15:46:29;10.10;68.40
6672;DHT22;3372;48.690;12.362;2023-04-15T15:48:56;10.20;67.30
6672;DHT22;3372;48.690;12.362;2023-04-15T15:51:22;10.20;68.40
6672;DHT22;3372;48.690;12.362;2023-04-15T15:53:47;10.20;67.20
6672;DHT22;3372;48.690;12.362;2023-04-15T15:56:13;10.10;66.90
6672;DHT22;3372;48.690;12.362;2023-04-15T15:58:38;10.10;66.80
6672;DHT22;3372;48.690;12.362;2023-04-15T16:01:04;10.10;66.70
6672;DHT22;3372;48.690;12.362;2023-04-15T16:03:30;10.00;66.50
6672;DHT22;3372;48.690;12.362;2023-04-15T16:05:55;10.00;66.80
6672;DHT22;3372;48.690;12.362;2023-04-15T16:08:21;10.00;66.70
6672;DHT22;3372;48.690;12.362;2023-04-15T16:10:47;9.90;68.10
6672;DHT22;3372;48.690;12.362;2023-04-15T16:13:13;9.90;67.90